sensor_id;sensor_type;location;lat;lon;timestamp;P1;durP1;ratioP1;P2;durP2;ratioP2
24102;SDS011;12278;53.058;9.028;2022-08-05T00:01:58;8.73;;;6.45;;
24102;SDS011;12278;53.058;9.028;2022-08-05T00:05:59;10.07;;;6.78;;
24102;SDS011;12278;53.058;9.028;2022-08-05T00:10:00;7.90;;;6.40;;
24102;SDS011;12278;53.058;9.028;2022-08-05T00:14:01;10.20;;;6.70;;
24102;SDS011;12278;53.058;9.028;2022-08-05T00:18:03;6.78;;;5.63;;
24102;SDS011;12278;53.058;9.028;2022-08-05T00:22:03;5.97;;;5.38;;
24102;SDS011;12278;53.058;9.028;2022-08-05T00:26:05;7.63;;;5.60;;
24102;SDS011;12278;53.058;9.028;2022-08-05T00:30:07;7.53;;;5.72;;
24102;SDS011;12278;53.058;9.028;2022-08-05T00:34:09;8.30;;;5.28;;
24102;SDS011;12278;53.058;9.028;2022-08-05T00:38:09;8.57;;;4.90;;
24102;SDS011;12278;53.058;9.028;2022-08-05T00:42:10;5.53;;;4.50;;
24102;SDS011;12278;53.058;9.028;2022-08-05T00:46:15;9.07;;;5.03;;
24102;SDS011;12278;53.058;9.028;2022-08-05T00:50:17;10.88;;;4.85;;
24102;SDS011;12278;53.058;9.028;2022-08-05T00:54:18;6.55;;;4.25;;
24102;SDS011;12278;53.058;9.028;2022-08-05T00:58:19;6.50;;;5.28;;
24102;SDS011;12278;53.058;9.028;2022-08-05T01:02:20;8.68;;;5.70;;
24102;SDS011;12278;53.058;9.028;2022-08-05T01:06:20;6.63;;;5.47;;
24102;SDS011;12278;53.058;9.028;2022-08-05T01:10:23;6.22;;;5.07;;
24102;SDS011;12278;53.058;9.028;2022-08-05T01:15:05;7.60;;;5.22;;
24102;SDS011;12278;53.058;9.028;2022-08-05T01:27:59;8.40;;;5.35;;
24102;SDS011;12278;53.058;9.028;2022-08-05T01:32:15;9.02;;;5.70;;
24102;SDS011;12278;53.058;9.028;2022-08-05T01:36:24;8.00;;;5.30;;
24102;SDS011;12278;53.058;9.028;2022-08-05T01:40:31;8.02;;;5.57;;
24102;SDS011;12278;53.058;9.028;2022-08-05T01:44:33;7.57;;;5.20;;
24102;SDS011;12278;53.058;9.028;2022-08-05T01:48:36;8.30;;;5.40;;
24102;SDS011;12278;53.058;9.028;2022-08-05T01:52:40;8.77;;;5.40;;
24102;SDS011;12278;53.058;9.028;2022-08-05T01:56:46;6.50;;;5.55;;
24102;SDS011;12278;53.058;9.028;2022-08-05T02:00:50;6.97;;;5.35;;
24102;SDS011;12278;53.058;9.028;2022-08-05T02:04:53;10.70;;;5.30;;
24102;SDS011;12278;53.058;9.028;2022-08-05T02:08:59;4.72;;;4.25;;
24102;SDS011;12278;53.058;9.028;2022-08-05T02:13:11;8.43;;;4.20;;
24102;SDS011;12278;53.058;9.028;2022-08-05T02:17:28;7.30;;;4.70;;
24102;SDS011;12278;53.058;9.028;2022-08-05T02:26:17;6.43;;;4.25;;
24102;SDS011;12278;53.058;9.028;2022-08-05T02:30:30;8.55;;;4.43;;
24102;SDS011;12278;53.058;9.028;2022-08-05T02:34:38;8.35;;;4.13;;
24102;SDS011;12278;53.058;9.028;2022-08-05T02:38:42;6.72;;;3.75;;
24102;SDS011;12278;53.058;9.028;2022-08-05T02:42:47;5.78;;;3.75;;
24102;SDS011;12278;53.058;9.028;2022-08-05T02:46:51;5.97;;;3.47;;
24102;SDS011;12278;53.058;9.028;2022-08-05T02:50:59;4.45;;;3.80;;
24102;SDS011;12278;53.058;9.028;2022-08-05T02:55:03;5.97;;;3.70;;
24102;SDS011;12278;53.058;9.028;2022-08-05T02:59:08;7.55;;;4.32;;
24102;SDS011;12278;53.058;9.028;2022-08-05T03:03:17;7.00;;;3.78;;
24102;SDS011;12278;53.058;9.028;2022-08-05T03:07:20;6.68;;;3.40;;
24102;SDS011;12278;53.058;9.028;2022-08-05T03:11:24;6.40;;;3.95;;
24102;SDS011;12278;53.058;9.028;2022-08-05T03:15:26;8.32;;;4.60;;
24102;SDS011;12278;53.058;9.028;2022-08-05T03:19:27;7.20;;;4.18;;
24102;SDS011;12278;53.058;9.028;2022-08-05T03:23:27;4.85;;;3.72;;
24102;SDS011;12278;53.058;9.028;2022-08-05T03:27:29;7.57;;;4.25;;
24102;SDS011;12278;53.058;9.028;2022-08-05T03:31:31;6.85;;;3.78;;
24102;SDS011;12278;53.058;9.028;2022-08-05T03:35:33;8.93;;;3.50;;
24102;SDS011;12278;53.058;9.028;2022-08-05T03:39:34;6.03;;;4.03;;
24102;SDS011;12278;53.058;9.028;2022-08-05T03:43:35;5.30;;;4.20;;
24102;SDS011;12278;53.058;9.028;2022-08-05T03:47:37;4.90;;;3.47;;
24102;SDS011;12278;53.058;9.028;2022-08-05T03:51:38;6.40;;;4.18;;
24102;SDS011;12278;53.058;9.028;2022-08-05T03:55:52;7.28;;;4.50;;
24102;SDS011;12278;53.058;9.028;2022-08-05T04:00:19;7.85;;;4.80;;
24102;SDS011;12278;53.058;9.028;2022-08-05T04:04:25;6.25;;;4.32;;
24102;SDS011;12278;53.058;9.028;2022-08-05T04:08:28;6.13;;;4.97;;
24102;SDS011;12278;53.058;9.028;2022-08-05T04:12:30;8.45;;;4.50;;
24102;SDS011;12278;53.058;9.028;2022-08-05T04:16:32;6.88;;;4.88;;
24102;SDS011;12278;53.058;9.028;2022-08-05T04:20:34;8.32;;;5.82;;
24102;SDS011;12278;53.058;9.028;2022-08-05T04:24:42;6.70;;;5.20;;
24102;SDS011;12278;53.058;9.028;2022-08-05T04:28:45;8.80;;;5.75;;
24102;SDS011;12278;53.058;9.028;2022-08-05T04:32:45;6.85;;;5.40;;
24102;SDS011;12278;53.058;9.028;2022-08-05T04:36:46;9.52;;;6.18;;
24102;SDS011;12278;53.058;9.028;2022-08-05T04:40:47;7.85;;;5.20;;
24102;SDS011;12278;53.058;9.028;2022-08-05T04:44:48;10.73;;;5.95;;
24102;SDS011;12278;53.058;9.028;2022-08-05T04:48:49;7.03;;;5.63;;
24102;SDS011;12278;53.058;9.028;2022-08-05T04:52:51;8.23;;;5.57;;
24102;SDS011;12278;53.058;9.028;2022-08-05T04:56:52;9.45;;;6.70;;
24102;SDS011;12278;53.058;9.028;2022-08-05T05:00:53;7.82;;;5.95;;
24102;SDS011;12278;53.058;9.028;2022-08-05T05:04:54;12.20;;;6.30;;
24102;SDS011;12278;53.058;9.028;2022-08-05T05:08:55;9.88;;;6.80;;
24102;SDS011;12278;53.058;9.028;2022-08-05T05:12:56;9.63;;;6.13;;
24102;SDS011;12278;53.058;9.028;2022-08-05T05:17:00;7.85;;;6.40;;
24102;SDS011;12278;53.058;9.028;2022-08-05T05:21:01;7.32;;;6.10;;
24102;SDS011;12278;53.058;9.028;2022-08-05T05:25:03;7.13;;;6.13;;
24102;SDS011;12278;53.058;9.028;2022-08-05T05:29:05;8.60;;;6.20;;
24102;SDS011;12278;53.058;9.028;2022-08-05T05:33:06;10.90;;;5.95;;
24102;SDS011;12278;53.058;9.028;2022-08-05T05:37:07;7.57;;;6.35;;
24102;SDS011;12278;53.058;9.028;2022-08-05T05:41:08;13.38;;;6.75;;
24102;SDS011;12278;53.058;9.028;2022-08-05T05:45:09;15.13;;;6.63;;
24102;SDS011;12278;53.058;9.028;2022-08-05T05:49:10;8.45;;;5.97;;
24102;SDS011;12278;53.058;9.028;2022-08-05T05:53:11;7.68;;;5.60;;
24102;SDS011;12278;53.058;9.028;2022-08-05T05:57:12;7.57;;;6.50;;
24102;SDS011;12278;53.058;9.028;2022-08-05T06:01:13;11.43;;;5.93;;
24102;SDS011;12278;53.058;9.028;2022-08-05T06:05:14;7.60;;;5.75;;
24102;SDS011;12278;53.058;9.028;2022-08-05T06:09:17;8.98;;;6.10;;
24102;SDS011;12278;53.058;9.028;2022-08-05T06:13:18;8.07;;;5.72;;
24102;SDS011;12278;53.058;9.028;2022-08-05T06:17:19;6.72;;;6.03;;
24102;SDS011;12278;53.058;9.028;2022-08-05T06:21:19;7.90;;;5.88;;
24102;SDS011;12278;53.058;9.028;2022-08-05T06:25:20;8.77;;;6.10;;
24102;SDS011;12278;53.058;9.028;2022-08-05T06:29:21;9.25;;;5.97;;
24102;SDS011;12278;53.058;9.028;2022-08-05T06:33:22;10.52;;;6.25;;
24102;SDS011;12278;53.058;9.028;2022-08-05T06:37:29;6.43;;;5.70;;
24102;SDS011;12278;53.058;9.028;2022-08-05T06:41:30;8.90;;;6.00;;
24102;SDS011;12278;53.058;9.028;2022-08-05T06:45:32;11.60;;;6.03;;
24102;SDS011;12278;53.058;9.028;2022-08-05T06:49:33;6.90;;;5.60;;
24102;SDS011;12278;53.058;9.028;2022-08-05T06:53:34;7.72;;;6.22;;
24102;SDS011;12278;53.058;9.028;2022-08-05T06:57:35;9.07;;;6.13;;
24102;SDS011;12278;53.058;9.028;2022-08-05T07:01:36;8.93;;;6.35;;
24102;SDS011;12278;53.058;9.028;2022-08-05T07:05:37;8.70;;;5.65;;
24102;SDS011;12278;53.058;9.028;2022-08-05T07:09:38;10.00;;;6.72;;
24102;SDS011;12278;53.058;9.028;2022-08-05T07:13:39;8.77;;;6.22;;
24102;SDS011;12278;53.058;9.028;2022-08-05T07:17:59;10.98;;;6.93;;
24102;SDS011;12278;53.058;9.028;2022-08-05T07:22:00;9.43;;;6.53;;
24102;SDS011;12278;53.058;9.028;2022-08-05T07:26:00;11.05;;;7.45;;
24102;SDS011;12278;53.058;9.028;2022-08-05T07:30:02;9.45;;;6.95;;
24102;SDS011;12278;53.058;9.028;2022-08-05T07:34:04;9.27;;;7.05;;
24102;SDS011;12278;53.058;9.028;2022-08-05T07:38:05;9.05;;;6.90;;
24102;SDS011;12278;53.058;9.028;2022-08-05T07:42:06;9.65;;;7.35;;
24102;SDS011;12278;53.058;9.028;2022-08-05T07:46:07;7.13;;;6.30;;
24102;SDS011;12278;53.058;9.028;2022-08-05T07:50:08;7.25;;;6.43;;
24102;SDS011;12278;53.058;9.028;2022-08-05T07:54:10;9.00;;;6.25;;
24102;SDS011;12278;53.058;9.028;2022-08-05T07:58:11;10.43;;;6.25;;
24102;SDS011;12278;53.058;9.028;2022-08-05T08:06:16;9.65;;;7.28;;
24102;SDS011;12278;53.058;9.028;2022-08-05T08:10:17;10.43;;;7.05;;
24102;SDS011;12278;53.058;9.028;2022-08-05T08:14:18;10.20;;;7.68;;
24102;SDS011;12278;53.058;9.028;2022-08-05T08:18:19;11.00;;;6.75;;
24102;SDS011;12278;53.058;9.028;2022-08-05T08:22:23;8.05;;;6.55;;
24102;SDS011;12278;53.058;9.028;2022-08-05T08:26:26;8.32;;;6.35;;
24102;SDS011;12278;53.058;9.028;2022-08-05T08:30:27;7.13;;;6.10;;
24102;SDS011;12278;53.058;9.028;2022-08-05T08:34:28;8.27;;;6.65;;
24102;SDS011;12278;53.058;9.028;2022-08-05T08:38:29;7.47;;;6.30;;
24102;SDS011;12278;53.058;9.028;2022-08-05T08:42:30;7.65;;;5.93;;
24102;SDS011;12278;53.058;9.028;2022-08-05T08:46:32;7.60;;;6.80;;
24102;SDS011;12278;53.058;9.028;2022-08-05T08:50:33;8.90;;;7.22;;
24102;SDS011;12278;53.058;9.028;2022-08-05T08:54:39;9.13;;;7.10;;
24102;SDS011;12278;53.058;9.028;2022-08-05T08:58:42;8.20;;;7.10;;
24102;SDS011;12278;53.058;9.028;2022-08-05T09:02:44;12.05;;;7.45;;
24102;SDS011;12278;53.058;9.028;2022-08-05T09:06:45;9.85;;;8.18;;
24102;SDS011;12278;53.058;9.028;2022-08-05T09:10:47;8.02;;;6.38;;
24102;SDS011;12278;53.058;9.028;2022-08-05T09:14:50;9.65;;;7.47;;
24102;SDS011;12278;53.058;9.028;2022-08-05T09:18:51;9.05;;;6.70;;
24102;SDS011;12278;53.058;9.028;2022-08-05T09:23:11;7.35;;;6.10;;
24102;SDS011;12278;53.058;9.028;2022-08-05T09:27:30;10.02;;;7.03;;
24102;SDS011;12278;53.058;9.028;2022-08-05T09:31:38;10.07;;;7.53;;
24102;SDS011;12278;53.058;9.028;2022-08-05T09:35:58;8.73;;;6.88;;
24102;SDS011;12278;53.058;9.028;2022-08-05T09:40:05;6.63;;;5.50;;
24102;SDS011;12278;53.058;9.028;2022-08-05T09:44:07;6.03;;;5.28;;
24102;SDS011;12278;53.058;9.028;2022-08-05T09:48:17;6.38;;;4.93;;
24102;SDS011;12278;53.058;9.028;2022-08-05T09:52:37;5.55;;;5.05;;
24102;SDS011;12278;53.058;9.028;2022-08-05T09:56:38;9.63;;;5.35;;
24102;SDS011;12278;53.058;9.028;2022-08-05T10:00:52;6.20;;;5.25;;
24102;SDS011;12278;53.058;9.028;2022-08-05T10:05:06;5.80;;;5.22;;
24102;SDS011;12278;53.058;9.028;2022-08-05T10:09:15;6.22;;;5.45;;
24102;SDS011;12278;53.058;9.028;2022-08-05T10:17:36;6.63;;;5.60;;
24102;SDS011;12278;53.058;9.028;2022-08-05T10:21:37;6.85;;;5.03;;
24102;SDS011;12278;53.058;9.028;2022-08-05T10:25:38;6.13;;;5.38;;
24102;SDS011;12278;53.058;9.028;2022-08-05T10:29:39;8.25;;;5.63;;
24102;SDS011;12278;53.058;9.028;2022-08-05T10:33:45;7.15;;;5.47;;
24102;SDS011;12278;53.058;9.028;2022-08-05T10:37:46;8.23;;;5.97;;
24102;SDS011;12278;53.058;9.028;2022-08-05T10:41:58;6.50;;;5.25;;
24102;SDS011;12278;53.058;9.028;2022-08-05T10:46:11;6.00;;;5.50;;
24102;SDS011;12278;53.058;9.028;2022-08-05T10:50:15;6.47;;;5.88;;
24102;SDS011;12278;53.058;9.028;2022-08-05T10:54:17;6.75;;;5.88;;
24102;SDS011;12278;53.058;9.028;2022-08-05T10:58:18;7.30;;;4.70;;
24102;SDS011;12278;53.058;9.028;2022-08-05T11:02:20;3.40;;;3.10;;
24102;SDS011;12278;53.058;9.028;2022-08-05T11:06:21;2.90;;;2.65;;
24102;SDS011;12278;53.058;9.028;2022-08-05T11:10:25;3.65;;;3.03;;
24102;SDS011;12278;53.058;9.028;2022-08-05T11:14:28;4.75;;;3.10;;
24102;SDS011;12278;53.058;9.028;2022-08-05T11:18:41;3.28;;;2.97;;
24102;SDS011;12278;53.058;9.028;2022-08-05T11:26:49;5.78;;;4.05;;
24102;SDS011;12278;53.058;9.028;2022-08-05T11:31:29;4.20;;;3.80;;
24102;SDS011;12278;53.058;9.028;2022-08-05T11:39:56;4.90;;;4.50;;
24102;SDS011;12278;53.058;9.028;2022-08-05T11:43:57;5.75;;;5.03;;
24102;SDS011;12278;53.058;9.028;2022-08-05T11:48:14;5.20;;;4.72;;
24102;SDS011;12278;53.058;9.028;2022-08-05T11:52:25;7.35;;;4.03;;
24102;SDS011;12278;53.058;9.028;2022-08-05T12:00:59;5.30;;;4.80;;
24102;SDS011;12278;53.058;9.028;2022-08-05T12:05:25;4.10;;;3.75;;
24102;SDS011;12278;53.058;9.028;2022-08-05T12:09:28;5.15;;;4.40;;
24102;SDS011;12278;53.058;9.028;2022-08-05T12:13:35;6.45;;;3.72;;
24102;SDS011;12278;53.058;9.028;2022-08-05T12:17:37;6.70;;;4.38;;
24102;SDS011;12278;53.058;9.028;2022-08-05T12:21:43;5.53;;;4.50;;
24102;SDS011;12278;53.058;9.028;2022-08-05T12:34:02;3.75;;;2.78;;
24102;SDS011;12278;53.058;9.028;2022-08-05T12:38:07;2.58;;;2.38;;
24102;SDS011;12278;53.058;9.028;2022-08-05T12:42:12;4.57;;;3.20;;
24102;SDS011;12278;53.058;9.028;2022-08-05T12:46:21;3.35;;;2.53;;
24102;SDS011;12278;53.058;9.028;2022-08-05T12:50:27;5.03;;;2.95;;
24102;SDS011;12278;53.058;9.028;2022-08-05T12:54:29;3.13;;;2.90;;
24102;SDS011;12278;53.058;9.028;2022-08-05T12:58:31;2.92;;;2.67;;
24102;SDS011;12278;53.058;9.028;2022-08-05T13:02:34;5.53;;;2.97;;
24102;SDS011;12278;53.058;9.028;2022-08-05T13:06:39;6.78;;;3.08;;
24102;SDS011;12278;53.058;9.028;2022-08-05T13:10:42;3.10;;;2.60;;
24102;SDS011;12278;53.058;9.028;2022-08-05T13:14:48;3.50;;;2.42;;
24102;SDS011;12278;53.058;9.028;2022-08-05T13:18:57;3.38;;;2.80;;
24102;SDS011;12278;53.058;9.028;2022-08-05T13:23:01;2.95;;;2.67;;
24102;SDS011;12278;53.058;9.028;2022-08-05T13:27:02;3.47;;;2.33;;
24102;SDS011;12278;53.058;9.028;2022-08-05T13:31:03;2.72;;;2.40;;
24102;SDS011;12278;53.058;9.028;2022-08-05T13:35:04;3.72;;;2.45;;
24102;SDS011;12278;53.058;9.028;2022-08-05T13:39:06;2.55;;;2.30;;
24102;SDS011;12278;53.058;9.028;2022-08-05T13:43:08;2.60;;;2.40;;
24102;SDS011;12278;53.058;9.028;2022-08-05T13:47:08;2.40;;;2.20;;
24102;SDS011;12278;53.058;9.028;2022-08-05T13:51:10;2.65;;;2.45;;
24102;SDS011;12278;53.058;9.028;2022-08-05T13:55:15;4.20;;;2.90;;
24102;SDS011;12278;53.058;9.028;2022-08-05T13:59:16;3.60;;;2.90;;
24102;SDS011;12278;53.058;9.028;2022-08-05T14:03:22;3.20;;;2.15;;
24102;SDS011;12278;53.058;9.028;2022-08-05T14:07:24;5.30;;;3.05;;
24102;SDS011;12278;53.058;9.028;2022-08-05T14:11:42;4.25;;;3.47;;
24102;SDS011;12278;53.058;9.028;2022-08-05T14:15:45;5.13;;;4.28;;
24102;SDS011;12278;53.058;9.028;2022-08-05T14:19:46;4.18;;;3.88;;
24102;SDS011;12278;53.058;9.028;2022-08-05T14:23:47;4.45;;;3.83;;
24102;SDS011;12278;53.058;9.028;2022-08-05T14:27:47;4.03;;;3.40;;
24102;SDS011;12278;53.058;9.028;2022-08-05T14:31:49;3.13;;;2.83;;
24102;SDS011;12278;53.058;9.028;2022-08-05T14:35:50;4.32;;;2.95;;
24102;SDS011;12278;53.058;9.028;2022-08-05T14:39:52;5.50;;;2.10;;
24102;SDS011;12278;53.058;9.028;2022-08-05T14:43:52;3.60;;;1.33;;
24102;SDS011;12278;53.058;9.028;2022-08-05T14:47:55;5.82;;;1.92;;
24102;SDS011;12278;53.058;9.028;2022-08-05T14:51:55;1.95;;;1.10;;
24102;SDS011;12278;53.058;9.028;2022-08-05T14:55:56;2.78;;;0.90;;
24102;SDS011;12278;53.058;9.028;2022-08-05T14:59:59;2.15;;;0.80;;
24102;SDS011;12278;53.058;9.028;2022-08-05T15:03:59;1.88;;;0.75;;
24102;SDS011;12278;53.058;9.028;2022-08-05T15:08:01;2.42;;;0.50;;
24102;SDS011;12278;53.058;9.028;2022-08-05T15:12:02;2.03;;;0.50;;
24102;SDS011;12278;53.058;9.028;2022-08-05T15:16:05;1.70;;;0.70;;
24102;SDS011;12278;53.058;9.028;2022-08-05T15:20:07;3.50;;;0.95;;
24102;SDS011;12278;53.058;9.028;2022-08-05T15:24:10;3.90;;;0.70;;
24102;SDS011;12278;53.058;9.028;2022-08-05T15:28:11;1.10;;;0.73;;
24102;SDS011;12278;53.058;9.028;2022-08-05T15:32:13;1.25;;;0.80;;
24102;SDS011;12278;53.058;9.028;2022-08-05T15:36:18;1.10;;;1.00;;
24102;SDS011;12278;53.058;9.028;2022-08-05T15:40:19;2.78;;;1.50;;
24102;SDS011;12278;53.058;9.028;2022-08-05T15:44:20;1.20;;;1.10;;
24102;SDS011;12278;53.058;9.028;2022-08-05T15:48:21;1.90;;;0.77;;
24102;SDS011;12278;53.058;9.028;2022-08-05T15:52:22;1.70;;;0.88;;
24102;SDS011;12278;53.058;9.028;2022-08-05T15:56:25;1.35;;;0.57;;
24102;SDS011;12278;53.058;9.028;2022-08-05T16:00:26;1.55;;;1.10;;
24102;SDS011;12278;53.058;9.028;2022-08-05T16:04:27;0.45;;;0.43;;
24102;SDS011;12278;53.058;9.028;2022-08-05T16:08:27;2.60;;;0.40;;
24102;SDS011;12278;53.058;9.028;2022-08-05T16:12:28;1.33;;;0.50;;
24102;SDS011;12278;53.058;9.028;2022-08-05T17:24:49;3.33;;;1.23;;
24102;SDS011;12278;53.058;9.028;2022-08-05T17:28:50;0.60;;;0.50;;
24102;SDS011;12278;53.058;9.028;2022-08-05T17:32:51;3.28;;;1.20;;
24102;SDS011;12278;53.058;9.028;2022-08-05T17:36:52;1.30;;;0.60;;
24102;SDS011;12278;53.058;9.028;2022-08-05T17:40:53;1.70;;;0.52;;
24102;SDS011;12278;53.058;9.028;2022-08-05T17:44:54;1.48;;;0.47;;
24102;SDS011;12278;53.058;9.028;2022-08-05T17:48:55;1.95;;;0.95;;
24102;SDS011;12278;53.058;9.028;2022-08-05T17:53:00;0.55;;;0.50;;
24102;SDS011;12278;53.058;9.028;2022-08-05T17:57:03;0.95;;;0.60;;
24102;SDS011;12278;53.058;9.028;2022-08-05T18:01:04;0.40;;;0.32;;
24102;SDS011;12278;53.058;9.028;2022-08-05T18:05:05;0.75;;;0.35;;
24102;SDS011;12278;53.058;9.028;2022-08-05T18:09:07;2.55;;;0.57;;
24102;SDS011;12278;53.058;9.028;2022-08-05T18:13:08;2.27;;;0.43;;
24102;SDS011;12278;53.058;9.028;2022-08-05T18:17:08;0.50;;;0.50;;
24102;SDS011;12278;53.058;9.028;2022-08-05T18:21:09;2.53;;;0.57;;
24102;SDS011;12278;53.058;9.028;2022-08-05T18:25:10;1.73;;;0.55;;
24102;SDS011;12278;53.058;9.028;2022-08-05T18:29:11;0.35;;;0.30;;
24102;SDS011;12278;53.058;9.028;2022-08-05T18:49:15;0.65;;;0.50;;
24102;SDS011;12278;53.058;9.028;2022-08-05T18:53:34;0.82;;;0.50;;
24102;SDS011;12278;53.058;9.028;2022-08-05T18:57:36;0.95;;;0.55;;
24102;SDS011;12278;53.058;9.028;2022-08-05T19:05:39;1.43;;;0.77;;
24102;SDS011;12278;53.058;9.028;2022-08-05T19:09:39;1.85;;;0.63;;
24102;SDS011;12278;53.058;9.028;2022-08-05T19:13:41;1.27;;;0.65;;
24102;SDS011;12278;53.058;9.028;2022-08-05T19:37:46;7.50;;;1.05;;
24102;SDS011;12278;53.058;9.028;2022-08-05T19:57:55;0.68;;;0.57;;
24102;SDS011;12278;53.058;9.028;2022-08-05T20:01:57;1.63;;;0.90;;
24102;SDS011;12278;53.058;9.028;2022-08-05T20:10:02;1.35;;;0.63;;
24102;SDS011;12278;53.058;9.028;2022-08-05T21:34:33;2.60;;;1.00;;
24102;SDS011;12278;53.058;9.028;2022-08-05T21:38:34;1.10;;;0.77;;
24102;SDS011;12278;53.058;9.028;2022-08-05T21:42:35;2.17;;;0.80;;
24102;SDS011;12278;53.058;9.028;2022-08-05T21:46:36;1.35;;;0.73;;
24102;SDS011;12278;53.058;9.028;2022-08-05T21:50:40;1.13;;;0.60;;
24102;SDS011;12278;53.058;9.028;2022-08-05T21:54:41;5.68;;;1.88;;
24102;SDS011;12278;53.058;9.028;2022-08-05T21:58:42;7.32;;;2.33;;
24102;SDS011;12278;53.058;9.028;2022-08-05T22:02:44;2.10;;;0.80;;
24102;SDS011;12278;53.058;9.028;2022-08-05T22:06:45;9.57;;;1.42;;
24102;SDS011;12278;53.058;9.028;2022-08-05T22:10:46;1.38;;;0.95;;
24102;SDS011;12278;53.058;9.028;2022-08-05T22:14:47;1.25;;;1.15;;
24102;SDS011;12278;53.058;9.028;2022-08-05T22:18:48;1.10;;;0.60;;
24102;SDS011;12278;53.058;9.028;2022-08-05T22:22:49;1.58;;;1.08;;
24102;SDS011;12278;53.058;9.028;2022-08-05T22:27:08;2.40;;;1.17;;
24102;SDS011;12278;53.058;9.028;2022-08-05T22:31:27;1.77;;;1.30;;
24102;SDS011;12278;53.058;9.028;2022-08-05T22:35:28;0.95;;;0.70;;
24102;SDS011;12278;53.058;9.028;2022-08-05T22:39:29;3.30;;;1.05;;
24102;SDS011;12278;53.058;9.028;2022-08-05T22:43:30;4.38;;;1.75;;
24102;SDS011;12278;53.058;9.028;2022-08-05T22:47:32;3.25;;;1.33;;
24102;SDS011;12278;53.058;9.028;2022-08-05T22:51:33;3.85;;;2.05;;
